Impacts METAR Board
IDs:

KSAN - San Diego Intl Arpt, CA, US

Updated at: 1700 UTC 24 Sep 2018
Potential Impact None Slight Moderate High
Time 24/05Z 24/06Z 24/07Z 24/08Z 24/09Z 24/10Z 24/11Z 24/12Z 24/13Z 24/14Z 24/15Z 24/16Z 24/17Z
Temp68 68 68 68 68 68 68 68 68 68 67 66 66
Dewpt60 60 61 61 61 61 60 61 61 61 60 59 60
Altim29.88 29.88 29.88 29.88 29.88 29.87 29.86 29.86 29.87 29.89 29.91 29.92 29.94
VIS10 10 10 10 10 10 10 10 10 10 10 10 10
CIG15 15 15 15 14 14 14 14 14 13 13 12 12
CoverOVCOVCOVCOVCOVCOVCOVCOVCOVCOVCOVCOVCOVC
FltCatMVFRMVFRMVFRMVFRMVFRMVFRMVFRMVFRMVFRMVFRMVFRMVFRMVFR
WX--------------------------
WDir31029027001000018003002602600
WSpd4 4 5 0 4 0 0 5 0 6 8 7 0
WGst-- -- -- -- -- -- -- -- -- -- -- -- --
Raw hourly METARs
KSAN 240451Z 31004KT 10SM OVC015 20/16 A2988 RMK AO2 SLP117 T02000156
KSAN 240551Z 29004KT 10SM OVC015 20/16 A2988 RMK AO2 SLP118 T02000156 10228 20200 51008
KSAN 240651Z 27005KT 10SM OVC015 20/16 A2988 RMK AO2 SLP119 T02000161
KSAN 240751Z 00000KT 10SM OVC015 20/16 A2988 RMK AO2 SLP117 T02000161 402390200
KSAN 240851Z 10004KT 10SM OVC014 20/16 A2988 RMK AO2 SLP117 T02000161 58001
KSAN 240951Z 00000KT 10SM OVC014 20/16 A2987 RMK AO2 SLP115 T02000161
KSAN 241051Z 00000KT 10SM OVC014 20/16 A2986 RMK AO2 SLP111 T02000156
KSAN 241151Z 18005KT 10SM OVC014 20/16 A2986 RMK AO2 SLP110 T02000161 10206 20200 56007
KSAN 241251Z 00000KT 10SM OVC014 20/16 A2987 RMK AO2 SLP113 T02000161
KSAN 241351Z 30006KT 10SM OVC013 20/16 A2989 RMK AO2 SLP120 T02000161
KSAN 241451Z 26008KT 10SM OVC013 19/16 A2991 RMK AO2 SLP127 T01940156 53017
KSAN 241551Z 26007KT 10SM OVC012 19/15 A2992 RMK AO2 SLP133 T01890150
KSAN 241651Z 00000KT 10SM OVC012 19/16 A2994 RMK AO2 SLP137 T01890156



Page loaded:  17:48 UTC  |   10:48 AM Pacific  |   11:48 AM Mountain  |   12:48 PM Central  |   01:48 PM Eastern

 

ADVISORIES

FORECASTS

FORECASTS

OBSERVATIONS

USER TOOLS

ABOUT US